Numa, Indiana
Current Conditions -  °F | °C
As of 5:53 PM on Sunday 21 Dec 2014 (Local Time) from KHUF Reporting Station
Clear Clear  
Wind Chill: 28°   Ceiling: Unl
Heat Index: 33°   Visibility: 10mi
Dew Point: 27°   Wind: 6mph
Humidity: 78%   Direction: 100°E
Pressure: 30.11"   Gusts: NA
Location:  39.6386°N, 87.3045°W
Report Text: KHUF 212253Z 10005KT 10SM CLR 01/M03 A3011 RMK AO2 SLP203 T00061028
Loading
Personal Weather Stations






























Interactive Weather Map New forecast layout! Learn more

10-Day Weather Forecast

Advertisements
Track Severe Weather on mobile